createdAt,value
2023-03-10T00:00:25.490Z,10.40
2023-03-10T00:02:52.486Z,10.30
2023-03-10T00:05:20.294Z,10.30
2023-03-10T00:07:47.757Z,10.30
2023-03-10T00:10:17.021Z,10.30
2023-03-10T00:12:44.301Z,10.30
2023-03-10T00:15:12.394Z,10.30
2023-03-10T00:17:39.290Z,10.20
2023-03-10T00:20:11.954Z,10.20
2023-03-10T00:22:39.607Z,10.30
2023-03-10T00:25:07.635Z,10.30
2023-03-10T00:27:35.945Z,10.30
2023-03-10T00:30:03.476Z,10.30
2023-03-10T00:32:30.423Z,10.30
2023-03-10T00:34:57.513Z,10.30
2023-03-10T00:37:24.378Z,10.30
2023-03-10T00:39:52.414Z,10.20
2023-03-10T00:42:19.592Z,10.20
2023-03-10T00:44:48.557Z,10.20
2023-03-10T00:47:15.632Z,10.20
2023-03-10T00:49:42.612Z,10.10
2023-03-10T00:52:09.508Z,10.10
2023-03-10T00:54:39.975Z,10.10
2023-03-10T00:57:06.990Z,10.10
2023-03-10T00:59:47.795Z,10.00
2023-03-10T01:02:18.098Z,10.10
2023-03-10T01:04:45.114Z,10.10
2023-03-10T01:07:12.096Z,10.20
2023-03-10T01:09:39.022Z,10.20
2023-03-10T01:12:06.882Z,10.10
2023-03-10T01:14:33.803Z,10.20
2023-03-10T01:17:00.748Z,10.20
2023-03-10T01:19:29.007Z,10.20
2023-03-10T01:21:55.949Z,10.20
2023-03-10T01:24:22.819Z,10.30
2023-03-10T01:26:49.715Z,10.30
2023-03-10T01:29:16.630Z,10.20
2023-03-10T01:31:43.616Z,10.20
2023-03-10T01:34:10.571Z,10.20
2023-03-10T01:36:41.497Z,10.20
2023-03-10T01:39:08.656Z,10.20
2023-03-10T01:41:38.435Z,10.20
2023-03-10T01:44:05.872Z,10.20
2023-03-10T01:46:47.235Z,10.20
2023-03-10T01:49:25.919Z,10.20
2023-03-10T01:51:59.411Z,10.10
2023-03-10T01:54:29.584Z,10.10
2023-03-10T01:56:57.357Z,10.10
2023-03-10T01:59:26.433Z,10.00
2023-03-10T02:01:57.562Z,10.00
2023-03-10T02:04:33.959Z,10.00
2023-03-10T02:07:05.054Z,10.00
2023-03-10T02:09:34.395Z,10.00
2023-03-10T02:12:03.663Z,9.90
2023-03-10T02:14:31.918Z,10.00
2023-03-10T02:16:59.007Z,10.00
2023-03-10T02:19:38.339Z,10.00
2023-03-10T02:22:08.994Z,9.90
2023-03-10T02:24:43.109Z,10.00
2023-03-10T02:27:20.674Z,10.00
2023-03-10T02:29:59.175Z,10.00
2023-03-10T02:32:32.995Z,9.80
2023-03-10T02:35:00.808Z,9.70
2023-03-10T02:37:31.463Z,9.70
2023-03-10T02:39:59.532Z,9.60
2023-03-10T02:42:31.005Z,9.60
2023-03-10T02:44:58.395Z,9.50
2023-03-10T02:47:25.271Z,9.50
2023-03-10T02:49:52.648Z,9.50
2023-03-10T02:52:26.766Z,9.50
2023-03-10T02:54:53.933Z,9.40
2023-03-10T02:57:21.364Z,9.40
2023-03-10T02:59:49.727Z,9.40
2023-03-10T03:02:16.728Z,9.40
2023-03-10T03:04:43.593Z,9.30
2023-03-10T03:07:11.212Z,9.30
2023-03-10T03:09:39.329Z,9.40
2023-03-10T03:12:07.115Z,9.30
2023-03-10T03:14:34.088Z,9.30
2023-03-10T03:17:04.005Z,9.20
2023-03-10T03:19:31.012Z,9.10
2023-03-10T03:21:58.490Z,9.00
2023-03-10T03:24:25.501Z,8.90
2023-03-10T03:26:52.463Z,8.90
2023-03-10T03:29:23.797Z,8.80
2023-03-10T03:31:50.760Z,8.90
2023-03-10T03:34:21.983Z,8.90
2023-03-10T03:36:52.398Z,8.90
2023-03-10T03:39:24.351Z,8.90
2023-03-10T03:41:57.433Z,8.90
2023-03-10T03:44:27.838Z,8.90
2023-03-10T03:46:55.725Z,8.90
2023-03-10T03:49:25.104Z,9.00
2023-03-10T03:51:52.110Z,9.00
2023-03-10T03:54:19.672Z,9.00
2023-03-10T03:56:47.022Z,9.00
2023-03-10T03:59:15.480Z,9.10
2023-03-10T04:01:42.541Z,9.00
2023-03-10T04:04:09.731Z,9.10
2023-03-10T04:06:38.127Z,9.10
2023-03-10T04:09:07.626Z,9.10
2023-03-10T04:11:34.653Z,9.20
2023-03-10T04:14:02.039Z,9.20
2023-03-10T04:16:29.268Z,9.20
2023-03-10T04:18:56.252Z,9.20
2023-03-10T04:21:24.195Z,9.20
2023-03-10T04:23:55.498Z,9.20
2023-03-10T04:26:26.356Z,9.10
2023-03-10T04:28:53.305Z,9.10
2023-03-10T04:31:21.530Z,9.10
2023-03-10T04:33:50.680Z,9.10
2023-03-10T04:36:19.466Z,9.00
2023-03-10T04:38:49.287Z,9.10
2023-03-10T04:41:17.660Z,9.00
2023-03-10T04:43:47.737Z,9.00
2023-03-10T04:46:16.294Z,9.00
2023-03-10T04:48:44.606Z,9.00
2023-03-10T04:51:13.348Z,9.00
2023-03-10T04:53:46.761Z,9.10
2023-03-10T04:56:14.196Z,9.10
2023-03-10T04:58:43.434Z,9.10
2023-03-10T05:01:14.754Z,9.20
2023-03-10T05:03:49.185Z,9.20
2023-03-10T05:06:18.124Z,9.20
2023-03-10T05:08:50.449Z,9.20
2023-03-10T05:11:19.679Z,9.20
2023-03-10T05:13:47.950Z,9.20
2023-03-10T05:16:16.049Z,9.20
2023-03-10T05:18:44.878Z,9.10
2023-03-10T05:21:12.182Z,9.20
2023-03-10T05:23:39.649Z,9.20
2023-03-10T05:26:08.744Z,9.10
2023-03-10T05:28:36.299Z,9.10
2023-03-10T05:31:10.466Z,9.10
2023-03-10T05:33:37.834Z,9.10
2023-03-10T05:36:06.986Z,9.10
2023-03-10T05:38:36.052Z,9.00
2023-03-10T05:41:07.273Z,9.00
2023-03-10T05:43:34.597Z,9.10
2023-03-10T05:46:02.188Z,9.20
2023-03-10T05:48:34.026Z,9.20
2023-03-10T05:51:02.747Z,9.20
2023-03-10T05:53:31.282Z,9.30
2023-03-10T05:55:58.710Z,9.30
2023-03-10T05:58:27.066Z,9.30
2023-03-10T06:00:54.538Z,9.20
2023-03-10T06:03:23.741Z,9.00
2023-03-10T06:05:51.998Z,8.70
2023-03-10T06:08:18.906Z,8.50
2023-03-10T06:10:45.882Z,8.30
2023-03-10T06:13:13.250Z,8.20
2023-03-10T06:15:40.117Z,8.10
2023-03-10T06:18:06.993Z,8.20
2023-03-10T06:20:33.846Z,8.10
2023-03-10T06:23:02.105Z,8.20
2023-03-10T06:25:28.954Z,8.20
2023-03-10T06:27:55.809Z,8.20
2023-03-10T06:30:22.983Z,8.10
2023-03-10T06:32:49.933Z,8.10
2023-03-10T06:35:17.011Z,8.00
2023-03-10T06:37:43.930Z,8.00
2023-03-10T06:40:14.244Z,7.80
2023-03-10T06:42:41.439Z,7.80
2023-03-10T06:45:10.681Z,7.70
2023-03-10T06:47:37.564Z,7.60
2023-03-10T06:50:06.087Z,7.60
2023-03-10T06:52:34.183Z,7.50
2023-03-10T06:55:01.563Z,7.50
2023-03-10T06:57:29.979Z,7.50
2023-03-10T06:59:56.849Z,7.50
2023-03-10T07:02:23.910Z,7.60
2023-03-10T07:04:50.935Z,7.70
2023-03-10T07:07:17.893Z,7.80
2023-03-10T07:09:46.163Z,7.80
2023-03-10T07:12:13.050Z,7.80
2023-03-10T07:14:41.302Z,7.80
2023-03-10T07:17:08.330Z,7.90
2023-03-10T07:19:36.559Z,7.90
2023-03-10T07:22:03.466Z,7.90
2023-03-10T07:24:30.313Z,7.90
2023-03-10T07:26:59.505Z,7.90
2023-03-10T07:29:26.604Z,7.90
2023-03-10T07:31:55.050Z,8.00
2023-03-10T07:34:22.164Z,8.10
2023-03-10T07:36:49.014Z,8.20
2023-03-10T07:39:16.145Z,8.30
2023-03-10T07:41:43.071Z,8.30
2023-03-10T07:44:10.349Z,8.40
2023-03-10T07:46:37.321Z,8.40
2023-03-10T07:49:05.646Z,8.50
2023-03-10T07:51:33.016Z,8.50
2023-03-10T07:54:00.023Z,8.60
2023-03-10T07:56:26.967Z,8.50
2023-03-10T07:58:53.864Z,8.60
2023-03-10T08:01:22.264Z,8.60
2023-03-10T08:03:49.617Z,8.70
2023-03-10T08:06:19.771Z,8.70
2023-03-10T08:08:46.909Z,8.80
2023-03-10T08:11:13.968Z,8.70
2023-03-10T08:13:41.810Z,8.70
2023-03-10T08:16:09.114Z,8.80
2023-03-10T08:18:36.641Z,8.70
2023-03-10T08:21:04.853Z,8.60
2023-03-10T08:23:33.977Z,8.30
2023-03-10T08:26:01.622Z,8.10
2023-03-10T08:28:30.524Z,7.90
2023-03-10T08:31:04.952Z,7.60
2023-03-10T08:33:32.706Z,7.40
2023-03-10T08:36:05.133Z,7.30
2023-03-10T08:38:34.158Z,7.30
2023-03-10T08:41:09.622Z,7.30
2023-03-10T08:43:37.092Z,7.20
2023-03-10T08:46:05.641Z,7.20
2023-03-10T08:48:34.010Z,7.20
2023-03-10T08:51:01.029Z,7.30
2023-03-10T08:53:28.044Z,7.50
2023-03-10T08:55:56.350Z,8.30
2023-03-10T08:58:24.494Z,9.20
2023-03-10T09:00:51.644Z,9.60
2023-03-10T09:03:19.092Z,10.20
2023-03-10T09:05:46.524Z,11.60
2023-03-10T09:08:13.772Z,11.60
2023-03-10T09:10:41.929Z,11.30
2023-03-10T09:13:14.164Z,11.30
2023-03-10T09:15:41.684Z,11.50
2023-03-10T09:18:09.277Z,11.80
2023-03-10T09:20:37.241Z,11.80
2023-03-10T09:23:04.314Z,11.50
2023-03-10T09:25:31.351Z,11.20
2023-03-10T09:27:58.454Z,10.90
2023-03-10T09:30:26.977Z,10.90
2023-03-10T09:32:54.134Z,10.70
2023-03-10T09:35:21.454Z,10.60
2023-03-10T09:37:48.287Z,10.30
2023-03-10T09:40:18.786Z,10.00
2023-03-10T09:42:47.044Z,9.80
2023-03-10T09:45:23.543Z,9.70
2023-03-10T09:48:11.688Z,9.60
2023-03-10T09:50:42.719Z,9.40
2023-03-10T09:53:26.343Z,9.30
2023-03-10T09:55:53.286Z,9.30
2023-03-10T09:58:30.512Z,9.20
2023-03-10T10:00:58.841Z,9.30
2023-03-10T10:03:37.264Z,9.10
2023-03-10T10:06:18.097Z,9.10
2023-03-10T10:09:01.891Z,9.10
2023-03-10T10:11:31.392Z,9.10
2023-03-10T10:14:27.815Z,9.00
2023-03-10T10:17:02.735Z,8.90
2023-03-10T10:19:33.714Z,8.80
2023-03-10T10:22:07.502Z,8.80
2023-03-10T10:24:34.588Z,8.80
2023-03-10T10:27:01.657Z,8.80
2023-03-10T10:29:34.761Z,8.80
2023-03-10T10:32:07.889Z,8.80
2023-03-10T10:34:37.647Z,8.70
2023-03-10T10:37:21.995Z,8.70
2023-03-10T10:39:53.061Z,8.80
2023-03-10T10:42:25.655Z,8.70
2023-03-10T10:44:54.384Z,8.60
2023-03-10T10:47:28.173Z,8.60
2023-03-10T10:50:10.381Z,8.50
2023-03-10T10:52:37.273Z,8.40
2023-03-10T10:55:05.195Z,8.40
2023-03-10T10:57:34.740Z,8.40
2023-03-10T11:00:18.468Z,8.40
2023-03-10T11:02:46.184Z,8.50
2023-03-10T11:05:17.907Z,8.50
2023-03-10T11:07:45.413Z,8.50
2023-03-10T11:10:14.735Z,8.60
2023-03-10T11:12:56.394Z,8.70
2023-03-10T11:15:29.976Z,8.80
2023-03-10T11:18:00.841Z,8.90
2023-03-10T11:20:33.274Z,8.80
2023-03-10T11:23:09.331Z,8.90
2023-03-10T11:25:40.163Z,8.90
2023-03-10T11:28:31.907Z,8.70
2023-03-10T11:31:09.915Z,8.80
2023-03-10T11:33:45.452Z,8.70
2023-03-10T11:36:25.358Z,8.70
2023-03-10T11:38:58.818Z,8.70
2023-03-10T11:41:30.841Z,8.80
2023-03-10T11:44:01.287Z,8.80
2023-03-10T11:46:32.795Z,8.80
2023-03-10T11:49:07.503Z,8.90
2023-03-10T11:51:39.760Z,9.00
2023-03-10T11:54:14.441Z,9.10
2023-03-10T11:56:42.493Z,9.10
2023-03-10T11:59:15.355Z,9.10
2023-03-10T12:01:46.134Z,9.10
2023-03-10T12:04:17.747Z,9.30
2023-03-10T12:06:50.964Z,9.40
2023-03-10T12:09:37.020Z,9.60
2023-03-10T12:12:06.576Z,9.80
2023-03-10T12:14:35.108Z,9.90
2023-03-10T12:17:04.085Z,9.90
2023-03-10T12:19:30.972Z,10.10
2023-03-10T12:22:25.144Z,10.20
2023-03-10T12:24:53.102Z,10.30
2023-03-10T12:27:20.082Z,10.30
2023-03-10T12:29:47.104Z,10.10
2023-03-10T12:32:42.598Z,9.90
2023-03-10T12:35:33.421Z,9.80
2023-03-10T12:38:35.725Z,9.50
2023-03-10T12:41:02.869Z,9.40
2023-03-10T12:44:05.559Z,9.40
2023-03-10T12:46:46.008Z,9.40
2023-03-10T12:49:27.917Z,9.40
2023-03-10T12:52:07.593Z,9.50
2023-03-10T12:54:44.965Z,9.40
2023-03-10T12:57:19.109Z,9.30
2023-03-10T12:59:54.484Z,9.10
2023-03-10T13:02:28.190Z,9.10
2023-03-10T13:05:00.685Z,9.00
2023-03-10T13:07:29.732Z,8.80
2023-03-10T13:09:59.199Z,8.70
2023-03-10T13:12:30.991Z,8.60
2023-03-10T13:15:00.317Z,8.60
2023-03-10T13:17:29.145Z,8.50
2023-03-10T13:19:59.477Z,8.40
2023-03-10T13:22:26.766Z,8.40
2023-03-10T13:25:04.327Z,8.40
2023-03-10T13:27:33.678Z,8.40
2023-03-10T13:30:03.067Z,8.40
2023-03-10T13:32:30.764Z,8.50
2023-03-10T13:34:58.072Z,8.40
2023-03-10T13:37:25.344Z,8.30
2023-03-10T13:39:52.475Z,8.20
2023-03-10T13:42:37.024Z,8.20
2023-03-10T13:45:20.749Z,8.10
2023-03-10T13:47:47.730Z,8.10
2023-03-10T13:50:16.660Z,8.20
2023-03-10T13:52:53.864Z,8.20
2023-03-10T13:55:20.828Z,8.20
2023-03-10T13:57:50.220Z,8.30
2023-03-10T14:00:19.398Z,8.30
2023-03-10T14:02:48.556Z,8.20
2023-03-10T14:05:37.203Z,8.30
2023-03-10T14:08:05.365Z,8.10
2023-03-10T14:10:32.379Z,8.00
2023-03-10T14:13:00.675Z,8.00
2023-03-10T14:15:30.644Z,8.00
2023-03-10T14:18:17.438Z,8.00
2023-03-10T14:20:45.342Z,8.00
2023-03-10T14:23:27.620Z,7.90
2023-03-10T14:25:56.757Z,7.90
2023-03-10T14:28:27.180Z,7.90
2023-03-10T14:30:54.785Z,7.90
2023-03-10T14:33:21.813Z,7.90
2023-03-10T14:35:49.937Z,7.90
2023-03-10T14:38:17.424Z,8.00
2023-03-10T14:40:47.396Z,8.00
2023-03-10T14:43:18.136Z,8.00
2023-03-10T14:45:47.525Z,8.00
2023-03-10T14:48:17.702Z,8.10
2023-03-10T14:50:45.218Z,8.10
2023-03-10T14:53:13.900Z,8.10
2023-03-10T14:55:42.838Z,8.10
2023-03-10T14:58:14.813Z,8.00
2023-03-10T15:00:41.690Z,8.10
2023-03-10T15:03:12.091Z,8.20
2023-03-10T15:05:48.148Z,8.20
2023-03-10T15:08:16.417Z,8.20
2023-03-10T15:10:48.029Z,8.20
2023-03-10T15:13:16.559Z,8.20
2023-03-10T15:15:45.374Z,8.20
2023-03-10T15:18:15.615Z,8.10
2023-03-10T15:20:43.285Z,8.10
2023-03-10T15:23:13.709Z,8.00
2023-03-10T15:25:44.739Z,8.00
2023-03-10T15:28:12.722Z,8.00
2023-03-10T15:30:39.673Z,8.00
2023-03-10T15:33:06.663Z,8.00
2023-03-10T15:35:35.089Z,7.90
2023-03-10T15:38:02.532Z,7.90
2023-03-10T15:40:32.002Z,7.90
2023-03-10T15:42:59.931Z,7.90
2023-03-10T15:45:29.128Z,7.90
2023-03-10T15:47:56.676Z,7.90
2023-03-10T15:50:24.078Z,7.80
2023-03-10T15:52:54.615Z,7.80
2023-03-10T15:55:21.841Z,7.80
2023-03-10T15:57:49.993Z,7.80
2023-03-10T16:00:18.391Z,7.80
2023-03-10T16:02:46.062Z,7.80
2023-03-10T16:05:13.900Z,7.90
2023-03-10T16:07:40.812Z,7.90
2023-03-10T16:10:12.331Z,7.90
2023-03-10T16:12:39.208Z,8.00
2023-03-10T16:15:07.115Z,8.00
2023-03-10T16:17:34.058Z,8.00
2023-03-10T16:20:02.244Z,8.10
2023-03-10T16:22:29.396Z,8.10
2023-03-10T16:24:56.426Z,8.20
2023-03-10T16:27:24.650Z,8.20
2023-03-10T16:29:51.652Z,8.10
2023-03-10T16:32:19.662Z,8.10
2023-03-10T16:34:46.987Z,8.10
2023-03-10T16:37:13.951Z,8.00
2023-03-10T16:39:40.883Z,7.90
2023-03-10T16:42:07.899Z,7.80
2023-03-10T16:44:36.208Z,7.70
2023-03-10T16:47:03.127Z,7.80
2023-03-10T16:49:32.027Z,7.70
2023-03-10T16:51:59.743Z,7.60
2023-03-10T16:54:26.638Z,7.60
2023-03-10T16:56:56.973Z,7.50
2023-03-10T16:59:25.204Z,7.40
2023-03-10T17:01:53.615Z,7.30
2023-03-10T17:04:20.742Z,7.20
2023-03-10T17:06:48.205Z,7.20
2023-03-10T17:09:16.012Z,7.10
2023-03-10T17:11:46.330Z,7.10
2023-03-10T17:14:15.396Z,7.10
2023-03-10T17:16:42.961Z,7.20
2023-03-10T17:19:14.444Z,7.10
2023-03-10T17:21:45.735Z,7.10
2023-03-10T17:24:13.983Z,7.10
2023-03-10T17:26:41.218Z,7.00
2023-03-10T17:29:08.532Z,7.00
2023-03-10T17:31:35.540Z,6.90
2023-03-10T17:34:04.828Z,6.90
2023-03-10T17:36:33.597Z,6.80
2023-03-10T17:39:02.504Z,6.70
2023-03-10T17:41:30.510Z,6.60
2023-03-10T17:43:57.504Z,6.50
2023-03-10T17:46:26.354Z,6.40
2023-03-10T17:48:53.640Z,6.40
2023-03-10T17:51:22.656Z,6.30
2023-03-10T17:53:51.986Z,6.30
2023-03-10T17:56:19.421Z,6.20
2023-03-10T17:58:46.379Z,6.10
2023-03-10T18:01:15.494Z,6.10
2023-03-10T18:03:42.720Z,6.20
2023-03-10T18:06:12.761Z,6.20
2023-03-10T18:08:39.723Z,6.20
2023-03-10T18:11:08.279Z,6.10
2023-03-10T18:13:35.573Z,6.10
2023-03-10T18:16:02.653Z,6.00
2023-03-10T18:18:29.676Z,5.90
2023-03-10T18:20:57.013Z,5.80
2023-03-10T18:23:24.193Z,5.70
2023-03-10T18:25:51.501Z,5.60
2023-03-10T18:28:20.504Z,5.40
2023-03-10T18:30:49.415Z,5.40
2023-03-10T18:33:16.457Z,5.40
2023-03-10T18:35:45.448Z,5.40
2023-03-10T18:38:13.462Z,5.40
2023-03-10T18:40:40.781Z,5.40
2023-03-10T18:43:07.779Z,5.40
2023-03-10T18:45:39.301Z,5.40
2023-03-10T18:48:06.865Z,5.40
2023-03-10T18:50:33.756Z,5.40
2023-03-10T18:53:00.897Z,5.40
2023-03-10T18:55:27.859Z,5.30
2023-03-10T18:57:54.763Z,5.30
2023-03-10T19:00:22.324Z,5.30
2023-03-10T19:02:53.751Z,5.30
2023-03-10T19:05:21.678Z,5.30
2023-03-10T19:07:48.546Z,5.30
2023-03-10T19:10:17.523Z,5.30
2023-03-10T19:12:44.464Z,5.30
2023-03-10T19:15:13.755Z,5.30
2023-03-10T19:17:40.923Z,5.40
2023-03-10T19:20:11.974Z,5.50
2023-03-10T19:22:39.981Z,5.50
2023-03-10T19:25:09.362Z,5.60
2023-03-10T19:27:39.840Z,5.60
2023-03-10T19:30:11.008Z,5.60
2023-03-10T19:32:38.270Z,5.70
2023-03-10T19:35:08.506Z,5.70
2023-03-10T19:37:39.059Z,5.60
2023-03-10T19:40:08.498Z,5.50
2023-03-10T19:42:38.395Z,5.30
2023-03-10T19:45:06.534Z,5.20
2023-03-10T19:47:33.749Z,5.20
2023-03-10T19:50:00.841Z,5.10
2023-03-10T19:52:27.830Z,5.20
2023-03-10T19:54:56.574Z,5.20
2023-03-10T19:57:23.441Z,5.20
2023-03-10T19:59:50.468Z,5.30
2023-03-10T20:02:18.433Z,5.30
2023-03-10T20:04:45.789Z,5.30
2023-03-10T20:07:12.629Z,5.20
2023-03-10T20:09:39.459Z,5.10
2023-03-10T20:12:07.867Z,5.10
2023-03-10T20:14:34.818Z,5.00
2023-03-10T20:17:01.942Z,5.00
2023-03-10T20:19:28.952Z,5.00
2023-03-10T20:21:55.840Z,4.90
2023-03-10T20:24:22.749Z,4.90
2023-03-10T20:26:49.827Z,4.80
2023-03-10T20:29:18.301Z,4.80
2023-03-10T20:31:45.298Z,4.70
2023-03-10T20:34:17.877Z,4.70
2023-03-10T20:36:44.793Z,4.60
2023-03-10T20:39:11.880Z,4.70
2023-03-10T20:41:38.874Z,4.70
2023-03-10T20:44:09.506Z,4.70
2023-03-10T20:46:37.701Z,4.60
2023-03-10T20:49:05.838Z,4.60
2023-03-10T20:51:32.698Z,4.60
2023-03-10T20:53:59.653Z,4.60
2023-03-10T20:56:26.664Z,4.50
2023-03-10T20:58:59.194Z,4.50
2023-03-10T21:01:27.275Z,4.50
2023-03-10T21:03:56.230Z,4.40
2023-03-10T21:06:23.944Z,4.30
2023-03-10T21:08:51.308Z,4.20
2023-03-10T21:11:18.902Z,4.00
2023-03-10T21:13:45.869Z,3.90
2023-03-10T21:16:13.370Z,3.90
2023-03-10T21:18:40.445Z,3.80
2023-03-10T21:21:09.660Z,3.80
2023-03-10T21:23:41.621Z,3.80
2023-03-10T21:26:12.514Z,3.80
2023-03-10T21:28:39.896Z,3.80
2023-03-10T21:31:07.204Z,3.80
2023-03-10T21:33:34.762Z,3.80
2023-03-10T21:36:02.185Z,3.70
2023-03-10T21:38:30.526Z,3.80
2023-03-10T21:40:57.425Z,3.70
2023-03-10T21:43:27.268Z,3.70
2023-03-10T21:45:54.310Z,3.60
2023-03-10T21:48:21.221Z,3.70
2023-03-10T21:50:48.419Z,3.70
2023-03-10T21:53:15.396Z,3.70
2023-03-10T21:55:45.150Z,3.70
2023-03-10T21:58:12.050Z,3.60
2023-03-10T22:00:38.958Z,3.70
2023-03-10T22:03:05.925Z,3.70
2023-03-10T22:05:32.962Z,3.70
2023-03-10T22:08:00.114Z,3.70
2023-03-10T22:10:27.188Z,3.70
2023-03-10T22:12:55.484Z,3.70
2023-03-10T22:15:25.130Z,3.60
2023-03-10T22:17:53.583Z,3.60
2023-03-10T22:20:23.262Z,3.70
2023-03-10T22:22:50.550Z,3.60
2023-03-10T22:25:18.421Z,3.60
2023-03-10T22:27:49.301Z,3.50
2023-03-10T22:30:22.504Z,3.50
2023-03-10T22:32:50.141Z,3.50
2023-03-10T22:35:18.119Z,3.50
2023-03-10T22:37:45.201Z,3.50
2023-03-10T22:40:14.497Z,3.50
2023-03-10T22:42:41.598Z,3.40
2023-03-10T22:45:15.805Z,3.40
2023-03-10T22:47:44.435Z,3.30
2023-03-10T22:50:14.479Z,3.20
2023-03-10T22:52:42.001Z,3.20
2023-03-10T22:55:12.871Z,3.10
2023-03-10T22:57:39.766Z,3.10
2023-03-10T23:00:11.164Z,3.10
2023-03-10T23:02:38.133Z,3.10
2023-03-10T23:05:07.734Z,3.10
2023-03-10T23:07:34.739Z,3.00
2023-03-10T23:10:02.189Z,3.00
2023-03-10T23:12:29.170Z,3.10
2023-03-10T23:14:56.588Z,3.10
2023-03-10T23:17:23.443Z,3.20
2023-03-10T23:19:55.666Z,3.20
2023-03-10T23:22:24.388Z,3.20
2023-03-10T23:24:51.482Z,3.10
2023-03-10T23:27:18.869Z,3.10
2023-03-10T23:29:45.766Z,3.10
2023-03-10T23:32:12.695Z,3.10
2023-03-10T23:34:39.624Z,3.10
2023-03-10T23:37:06.573Z,3.00
2023-03-10T23:39:34.850Z,3.00
2023-03-10T23:42:02.012Z,3.00
2023-03-10T23:44:28.919Z,3.00
2023-03-10T23:46:55.832Z,3.00
2023-03-10T23:49:22.786Z,3.00
2023-03-10T23:51:53.197Z,3.00
2023-03-10T23:54:22.295Z,3.00
2023-03-10T23:56:51.037Z,3.00
2023-03-10T23:59:17.964Z,2.90
